createdAt,value
2022-08-17T00:00:34.633Z,19.50
2022-08-17T00:03:15.206Z,19.50
2022-08-17T00:08:14.814Z,19.40
2022-08-17T00:10:42.694Z,19.40
2022-08-17T00:13:19.833Z,19.70
2022-08-17T00:19:01.766Z,20.70
2022-08-17T00:21:05.577Z,19.40
2022-08-17T00:31:10.198Z,19.30
2022-08-17T00:38:34.534Z,19.10
2022-08-17T00:41:06.506Z,19.10
2022-08-17T00:43:38.107Z,19.10
2022-08-17T00:46:17.403Z,19.10
2022-08-17T00:48:45.181Z,19.10
2022-08-17T00:51:16.288Z,19.00
2022-08-17T00:53:45.758Z,19.00
2022-08-17T00:56:21.079Z,19.00
2022-08-17T00:58:51.823Z,19.00
2022-08-17T01:03:52.326Z,19.00
2022-08-17T01:06:21.070Z,18.90
2022-08-17T01:08:52.121Z,19.00
2022-08-17T01:16:30.869Z,18.90
2022-08-17T01:19:02.167Z,18.90
2022-08-17T01:21:36.561Z,18.90
2022-08-17T01:26:33.176Z,18.80
2022-08-17T01:29:01.418Z,18.80
2022-08-17T01:31:40.114Z,18.80
2022-08-17T01:34:10.024Z,18.80
2022-08-17T01:36:39.527Z,18.80
2022-08-17T01:39:10.523Z,18.70
2022-08-17T01:41:40.468Z,18.60
2022-08-17T01:46:37.022Z,18.70
2022-08-17T01:49:10.332Z,18.70
2022-08-17T01:54:10.191Z,18.70
2022-08-17T01:56:40.555Z,18.70
2022-08-17T02:04:05.337Z,18.70
2022-08-17T02:06:52.930Z,18.50
2022-08-17T02:09:24.085Z,18.50
2022-08-17T02:19:17.073Z,18.50
2022-08-17T02:21:46.930Z,18.50
2022-08-17T02:24:59.410Z,18.40
2022-08-17T02:42:01.696Z,18.40
2022-08-17T02:52:05.000Z,18.30
2022-08-17T03:02:12.119Z,18.30
2022-08-17T03:12:11.142Z,18.30
2022-08-17T03:14:42.451Z,18.20
2022-08-17T03:17:12.796Z,18.20
2022-08-17T03:42:31.845Z,18.10
2022-08-17T03:50:33.948Z,18.00
2022-08-17T03:53:22.883Z,18.00
2022-08-17T04:01:07.587Z,18.00
2022-08-17T04:10:58.184Z,17.90
2022-08-17T04:23:17.711Z,17.90
2022-08-17T04:25:49.046Z,17.90
2022-08-17T04:28:18.084Z,17.90
2022-08-17T04:30:47.373Z,17.90
2022-08-17T04:33:26.916Z,17.60
2022-08-17T04:35:58.020Z,17.80
2022-08-17T04:38:28.503Z,17.90
2022-08-17T04:41:15.493Z,17.90
2022-08-17T04:43:44.196Z,17.80
2022-08-17T04:46:16.179Z,17.80
2022-08-17T04:48:48.431Z,17.80
2022-08-17T04:51:31.132Z,17.80
2022-08-17T04:54:12.761Z,17.80
2022-08-17T04:59:13.250Z,17.80
2022-08-17T05:01:41.860Z,17.80
2022-08-17T05:04:33.406Z,17.90
2022-08-17T05:19:30.982Z,18.00
2022-08-17T05:32:39.174Z,18.20
2022-08-17T05:52:48.953Z,18.90
2022-08-17T05:57:56.079Z,18.60
2022-08-17T06:00:31.294Z,18.90
2022-08-17T06:03:23.454Z,19.10
2022-08-17T06:06:02.253Z,18.80
2022-08-17T06:13:57.122Z,19.00
2022-08-17T06:16:34.479Z,19.00
2022-08-17T06:19:10.431Z,19.00
2022-08-17T06:21:41.644Z,19.10
2022-08-17T06:24:27.550Z,19.10
2022-08-17T06:29:52.060Z,19.20
2022-08-17T06:45:18.699Z,19.30
2022-08-17T06:48:04.228Z,19.10
2022-08-17T06:53:17.925Z,19.50
2022-08-17T06:55:54.558Z,19.40
2022-08-17T06:58:29.771Z,19.50
2022-08-17T07:01:01.034Z,19.50
2022-08-17T07:03:54.827Z,19.60
2022-08-17T07:06:27.060Z,19.60
2022-08-17T07:09:00.062Z,19.60
2022-08-17T07:11:32.266Z,19.60
2022-08-17T07:14:25.448Z,19.70
2022-08-17T07:16:56.143Z,19.70
2022-08-17T07:19:27.579Z,19.70
2022-08-17T07:22:02.309Z,19.80
2022-08-17T07:24:37.285Z,19.80
2022-08-17T07:27:13.273Z,19.50
2022-08-17T07:29:46.995Z,19.30
2022-08-17T07:32:18.657Z,20.50
2022-08-17T07:35:02.704Z,19.60
2022-08-17T07:37:32.357Z,20.40
2022-08-17T07:45:35.143Z,20.10
2022-08-17T07:53:23.608Z,20.10
2022-08-17T07:55:52.547Z,20.30
2022-08-17T07:58:23.648Z,20.30
2022-08-17T08:01:11.176Z,18.60
2022-08-17T08:03:44.678Z,20.50
2022-08-17T08:06:23.926Z,20.50
2022-08-17T08:08:56.504Z,20.50
2022-08-17T08:11:35.732Z,20.60
2022-08-17T08:14:21.862Z,20.60
2022-08-17T08:17:01.788Z,21.00
2022-08-17T08:19:31.093Z,20.70
2022-08-17T08:27:09.193Z,20.80
2022-08-17T08:30:04.956Z,21.10
2022-08-17T08:32:52.306Z,20.80
2022-08-17T08:35:39.575Z,20.80
2022-08-17T08:38:18.304Z,20.80
2022-08-17T08:41:17.079Z,21.00
2022-08-17T08:46:35.427Z,21.00
2022-08-17T08:50:02.062Z,21.10
2022-08-17T08:52:44.076Z,21.00
2022-08-17T08:57:44.151Z,21.00
2022-08-17T09:00:20.017Z,20.70
2022-08-17T09:03:14.580Z,20.90
2022-08-17T09:08:39.692Z,20.70
2022-08-17T09:11:28.084Z,20.70
2022-08-17T09:14:21.692Z,20.90
2022-08-17T09:19:51.392Z,21.00
2022-08-17T09:22:48.581Z,22.00
2022-08-17T09:25:28.491Z,21.40
2022-08-17T09:28:06.563Z,21.30
2022-08-17T09:30:56.089Z,21.40
2022-08-17T09:33:29.028Z,21.00
2022-08-17T09:36:42.565Z,21.30
2022-08-17T09:39:17.361Z,21.00
2022-08-17T09:42:02.806Z,21.10
2022-08-17T09:47:10.281Z,21.10
2022-08-17T09:49:58.731Z,21.10
2022-08-17T09:52:28.845Z,21.10
2022-08-17T09:54:56.617Z,21.10
2022-08-17T10:05:08.879Z,21.40
2022-08-17T10:07:55.476Z,21.20
2022-08-17T10:10:29.692Z,21.00
2022-08-17T10:13:12.823Z,21.30
2022-08-17T10:16:00.472Z,21.10
2022-08-17T10:18:45.988Z,21.30
2022-08-17T10:21:34.111Z,21.50
2022-08-17T10:26:56.564Z,21.40
2022-08-17T10:29:50.426Z,21.40
2022-08-17T10:32:45.355Z,21.40
2022-08-17T10:35:53.276Z,21.50
2022-08-17T10:38:49.544Z,21.10
2022-08-17T10:41:21.845Z,21.40
2022-08-17T10:44:38.602Z,21.10
2022-08-17T10:47:03.050Z,21.40
2022-08-17T10:49:47.817Z,21.50
2022-08-17T10:52:21.936Z,21.40
2022-08-17T10:57:31.735Z,21.50
2022-08-17T11:00:08.608Z,21.50
2022-08-17T11:02:53.263Z,21.50
2022-08-17T11:05:46.973Z,21.50
2022-08-17T11:08:22.876Z,21.60
2022-08-17T11:11:20.628Z,21.70
2022-08-17T11:14:17.025Z,22.00
2022-08-17T11:16:58.860Z,21.80
2022-08-17T11:22:33.513Z,21.40
2022-08-17T11:25:20.387Z,21.80
2022-08-17T11:27:53.674Z,22.20
2022-08-17T11:30:50.946Z,21.80
2022-08-17T11:33:29.819Z,21.80
2022-08-17T11:36:29.431Z,22.00
2022-08-17T11:39:16.539Z,21.70
2022-08-17T11:47:36.195Z,22.10
2022-08-17T11:50:47.642Z,22.10
2022-08-17T11:53:37.284Z,22.10
2022-08-17T12:01:01.115Z,22.10
2022-08-17T12:03:31.886Z,22.50
2022-08-17T12:06:30.455Z,22.00
2022-08-17T12:09:13.588Z,21.90
2022-08-17T12:12:11.954Z,22.10
2022-08-17T12:17:41.162Z,22.10
2022-08-17T12:20:12.516Z,22.10
2022-08-17T12:22:45.156Z,22.10
2022-08-17T12:25:26.829Z,22.10
2022-08-17T12:30:36.199Z,21.70
2022-08-17T12:35:35.314Z,22.10
2022-08-17T12:38:04.525Z,22.10
2022-08-17T12:40:33.280Z,22.20
2022-08-17T12:43:04.006Z,22.20
2022-08-17T12:45:39.504Z,22.30
2022-08-17T12:48:12.372Z,22.10
2022-08-17T12:50:43.749Z,21.90
2022-08-17T12:53:25.024Z,22.20
2022-08-17T12:55:52.537Z,22.00
2022-08-17T12:58:25.894Z,22.20
2022-08-17T13:01:15.937Z,22.20
2022-08-17T13:03:45.519Z,22.20
2022-08-17T13:06:25.615Z,22.20
2022-08-17T13:08:52.449Z,22.20
2022-08-17T13:11:24.157Z,22.10
2022-08-17T13:13:55.151Z,22.20
2022-08-17T13:16:27.970Z,22.60
2022-08-17T13:24:12.021Z,21.90
2022-08-17T13:27:01.929Z,22.20
2022-08-17T13:29:45.841Z,22.30
2022-08-17T13:32:23.273Z,22.20
2022-08-17T13:35:14.155Z,22.40
2022-08-17T13:37:58.606Z,22.30
2022-08-17T13:40:36.132Z,22.40
2022-08-17T13:43:03.472Z,22.70
2022-08-17T13:48:14.473Z,22.70
2022-08-17T13:50:46.786Z,22.50
2022-08-17T13:53:23.970Z,22.50
2022-08-17T13:55:58.613Z,22.10
2022-08-17T13:58:28.130Z,22.20
2022-08-17T14:00:56.325Z,22.60
2022-08-17T14:03:24.349Z,22.60
2022-08-17T14:05:52.723Z,22.40
2022-08-17T14:08:20.814Z,22.00
2022-08-17T14:10:58.316Z,22.40
2022-08-17T14:21:10.892Z,20.30
2022-08-17T14:26:05.935Z,22.80
2022-08-17T14:31:03.452Z,22.30
2022-08-17T14:45:47.482Z,22.80
2022-08-17T14:50:44.139Z,22.40
2022-08-17T14:53:13.500Z,22.50
2022-08-17T14:55:40.722Z,22.40
2022-08-17T15:03:04.384Z,22.30
2022-08-17T15:05:35.224Z,22.30
2022-08-17T15:08:03.566Z,22.50
2022-08-17T15:10:32.111Z,22.40
2022-08-17T15:12:59.365Z,22.70
2022-08-17T15:20:24.751Z,22.00
2022-08-17T15:22:56.075Z,22.30
2022-08-17T15:25:26.223Z,22.30
2022-08-17T15:27:55.485Z,22.00
2022-08-17T15:32:54.701Z,22.70
2022-08-17T15:35:29.086Z,22.30
2022-08-17T15:37:58.478Z,22.40
2022-08-17T15:42:53.182Z,22.60
2022-08-17T15:45:24.626Z,22.40
2022-08-17T15:47:53.526Z,22.50
2022-08-17T15:52:58.808Z,22.60
2022-08-17T15:55:28.231Z,22.40
2022-08-17T15:57:55.443Z,22.50
2022-08-17T16:03:44.312Z,22.70
2022-08-17T16:05:38.374Z,22.10
2022-08-17T16:08:07.791Z,22.50
2022-08-17T16:10:36.097Z,22.30
2022-08-17T16:13:04.355Z,22.40
2022-08-17T16:17:59.865Z,22.30
2022-08-17T16:25:47.207Z,22.20
2022-08-17T16:28:16.214Z,22.40
2022-08-17T16:33:11.771Z,22.70
2022-08-17T16:35:39.735Z,22.30
2022-08-17T16:40:35.712Z,22.30
2022-08-17T16:43:04.264Z,22.30
2022-08-17T16:48:07.836Z,22.30
2022-08-17T16:50:35.969Z,22.40
2022-08-17T16:53:17.247Z,21.80
2022-08-17T16:55:45.676Z,22.60
2022-08-17T16:58:12.987Z,21.80
2022-08-17T17:06:13.527Z,21.80
2022-08-17T17:09:02.508Z,22.30
2022-08-17T17:11:48.021Z,22.20
2022-08-17T17:14:20.286Z,22.20
2022-08-17T17:17:03.189Z,21.80
2022-08-17T17:19:35.648Z,22.30
2022-08-17T17:24:36.600Z,22.50
2022-08-17T17:27:18.522Z,22.00
2022-08-17T17:32:41.266Z,22.20
2022-08-17T17:35:34.643Z,22.20
2022-08-17T17:38:17.068Z,22.00
2022-08-17T17:40:50.206Z,22.10
2022-08-17T17:43:38.188Z,22.20
2022-08-17T17:46:27.480Z,23.10
2022-08-17T17:52:01.959Z,22.10
2022-08-17T17:54:42.831Z,22.10
2022-08-17T17:59:55.133Z,22.20
2022-08-17T18:03:00.102Z,22.10
2022-08-17T18:08:10.610Z,22.10
2022-08-17T18:13:50.074Z,22.10
2022-08-17T18:16:19.232Z,22.30
2022-08-17T18:18:52.382Z,22.00
2022-08-17T18:21:28.512Z,22.00
2022-08-17T18:24:00.286Z,22.20
2022-08-17T18:26:32.847Z,22.40
2022-08-17T18:29:01.535Z,22.00
2022-08-17T18:31:29.042Z,22.10
2022-08-17T18:37:26.480Z,22.20
2022-08-17T18:42:30.442Z,22.10
2022-08-17T18:44:57.398Z,22.00
2022-08-17T18:47:28.186Z,22.00
2022-08-17T18:50:25.960Z,22.00
2022-08-17T18:52:55.215Z,21.90
2022-08-17T18:55:28.429Z,22.00
2022-08-17T18:57:59.563Z,22.00
2022-08-17T19:00:42.073Z,22.00
2022-08-17T19:03:18.026Z,21.60
2022-08-17T19:05:55.307Z,21.60
2022-08-17T19:11:09.547Z,22.00
2022-08-17T19:13:42.131Z,21.70
2022-08-17T19:16:31.774Z,21.90
2022-08-17T19:21:43.138Z,22.00
2022-08-17T19:24:19.882Z,22.20
2022-08-17T19:26:58.250Z,21.90
2022-08-17T19:29:44.455Z,21.90
2022-08-17T19:32:16.427Z,21.80
2022-08-17T19:39:59.139Z,21.80
2022-08-17T19:42:40.531Z,21.80
2022-08-17T19:48:05.068Z,22.20
2022-08-17T19:50:39.098Z,21.80
2022-08-17T19:53:18.470Z,21.70
2022-08-17T19:58:27.845Z,21.70
2022-08-17T20:00:55.275Z,21.70
2022-08-17T20:03:43.998Z,21.50
2022-08-17T20:06:13.531Z,21.70
2022-08-17T20:09:22.230Z,21.70
2022-08-17T20:11:54.830Z,21.70
2022-08-17T20:14:30.832Z,21.30
2022-08-17T20:19:41.223Z,21.50
2022-08-17T20:22:17.582Z,21.60
2022-08-17T20:24:53.816Z,21.50
2022-08-17T20:27:31.656Z,21.60
2022-08-17T20:30:13.025Z,21.40
2022-08-17T20:35:37.969Z,21.30
2022-08-17T20:38:08.561Z,21.50
2022-08-17T20:43:51.895Z,21.40
2022-08-17T20:52:11.033Z,21.30
2022-08-17T20:57:35.108Z,21.20
2022-08-17T21:02:47.035Z,21.20
2022-08-17T21:05:27.349Z,21.10
2022-08-17T21:08:13.407Z,21.10
2022-08-17T21:10:46.493Z,20.70
2022-08-17T21:18:25.973Z,20.60
2022-08-17T21:21:24.400Z,21.30
2022-08-17T21:24:13.365Z,20.90
2022-08-17T21:26:50.517Z,21.10
2022-08-17T21:29:31.967Z,21.20
2022-08-17T21:34:35.535Z,20.80
2022-08-17T21:37:23.784Z,20.40
2022-08-17T21:40:21.613Z,20.80
2022-08-17T21:42:53.820Z,20.40
2022-08-17T21:45:35.597Z,20.70
2022-08-17T21:48:21.078Z,20.60
2022-08-17T21:51:01.923Z,20.70
2022-08-17T21:53:46.828Z,20.60
2022-08-17T21:56:25.497Z,20.20
2022-08-17T21:59:07.810Z,20.60
2022-08-17T22:01:41.005Z,20.80
2022-08-17T22:09:16.075Z,20.70
2022-08-17T22:11:52.617Z,20.50
2022-08-17T22:14:26.551Z,21.00
2022-08-17T22:17:21.050Z,20.90
2022-08-17T22:22:29.739Z,20.30
2022-08-17T22:24:59.697Z,20.60
2022-08-17T22:27:48.610Z,20.50
2022-08-17T22:30:27.652Z,20.50
2022-08-17T22:32:55.411Z,20.40
2022-08-17T22:35:38.736Z,20.40
2022-08-17T22:38:20.918Z,20.30
2022-08-17T22:40:57.680Z,20.40
2022-08-17T22:43:28.825Z,20.30
2022-08-17T22:45:59.849Z,20.40
2022-08-17T22:54:08.225Z,20.30
2022-08-17T22:59:37.906Z,20.30
2022-08-17T23:04:45.644Z,20.20
2022-08-17T23:07:15.928Z,20.20
2022-08-17T23:09:42.918Z,20.20
2022-08-17T23:12:14.835Z,20.10
2022-08-17T23:17:14.681Z,20.10
2022-08-17T23:19:45.952Z,20.00
2022-08-17T23:24:52.251Z,20.00
2022-08-17T23:29:48.683Z,20.30
2022-08-17T23:32:17.791Z,19.90
2022-08-17T23:34:47.805Z,19.90
2022-08-17T23:39:44.997Z,19.80
2022-08-17T23:42:16.248Z,22.30
2022-08-17T23:47:11.473Z,19.90
2022-08-17T23:52:12.663Z,19.50
2022-08-17T23:54:46.462Z,19.80
2022-08-17T23:57:19.740Z,19.80
